St. Jones River Kitts Hummock-NERR DE USA current weather conditions

sailwx.info

Wind from 023 at 3 knots gusting 6

Air temperature 20.6° C
Dewpoint 20.4° C

Last reported at 2020-Aug-06 12:05 UTC.
Time now 2020-Aug-06 12:30 UTC

Location: N 39°05' W 075°26'.
View on Google Maps.

See reports from other nearby stations

  
Tides and Currents Weather Stations Pressure Air Temp Water Temp Dewpoint Dewpoint Depression Visibility Wind Speed Wind Dir Waves Ship Positions
date/time (UTC)wind fromknots sea level pressurealtimeterstation pressurevisibilityair tempwater tempwave heightnotes
2020-Aug-06 12:05 023 3 gusting 6 20.6
2020-Aug-06 12:00 018 2 gusting 4 20.5
2020-Aug-06 11:55 339 2 gusting 5 20.5
2020-Aug-06 11:50 322 4 gusting 7 20.5
2020-Aug-06 11:45 319 4 gusting 7 20.3
2020-Aug-06 11:40 318 6 gusting 11 20.3
2020-Aug-06 11:35 319 7 gusting 13 20.2
2020-Aug-06 11:30 300 8 gusting 17 20.2
2020-Aug-06 11:25 269 5 gusting 11 20.3
2020-Aug-06 11:20 294 8 gusting 22 20.5
2020-Aug-06 11:15 276 7 gusting 16 20.9
2020-Aug-06 11:10 256 9 gusting 21 22.3
2020-Aug-06 11:05 301 4 gusting 8 23.8
2020-Aug-06 11:00 251 2 gusting 4 23.9
2020-Aug-06 10:55 244 1 gusting 3 23.9
2020-Aug-06 10:50 189 3 gusting 4 24.0
2020-Aug-06 10:45 188 2 gusting 3 24.0
2020-Aug-06 10:40 165 2 gusting 3 24.0
2020-Aug-06 10:35 148 2 gusting 3 23.9
2020-Aug-06 10:30 131 1 gusting 2 23.8
2020-Aug-06 10:25 128 0 gusting 1 23.6
2020-Aug-06 10:20 074 0 gusting 1 23.6
2020-Aug-06 10:15 23.5
2020-Aug-06 10:10 197 0 gusting 0 23.5
2020-Aug-06 10:05 200 0 gusting 1 23.5
2020-Aug-06 10:00 184 1 gusting 2 23.5
2020-Aug-06 09:55 149 1 gusting 2 23.5
2020-Aug-06 09:50 151 1 gusting 2 23.5
2020-Aug-06 09:45 158 1 gusting 2 23.4
2020-Aug-06 09:40 23.4
2020-Aug-06 09:35 23.5
2020-Aug-06 09:30 23.6
2020-Aug-06 09:25 23.6
2020-Aug-06 09:20 031 0 gusting 0 23.6
2020-Aug-06 09:15 031 0 gusting 0 23.6
2020-Aug-06 09:10 23.5
2020-Aug-06 09:05 23.5
2020-Aug-06 09:00 23.5
2020-Aug-06 08:55 031 0 gusting 1 23.6
2020-Aug-06 08:50 031 0 gusting 1 23.6
2020-Aug-06 08:45 031 0 gusting 0 23.6
2020-Aug-06 08:40 031 0 gusting 1 23.6
2020-Aug-06 08:35 034 0 gusting 1 23.6
2020-Aug-06 08:30 090 0 gusting 0 23.6
2020-Aug-06 08:25 131 0 gusting 1 23.6
2020-Aug-06 08:20 181 0 gusting 1 23.6
2020-Aug-06 08:15 186 1 gusting 1 23.5
2020-Aug-06 08:10 192 0 gusting 1 23.5
2020-Aug-06 08:05 196 0 gusting 1 23.5
2020-Aug-06 08:00 199 1 gusting 2 23.5
2020-Aug-06 07:55 175 1 gusting 2 23.6
2020-Aug-06 07:50 344 0 gusting 0 23.6
2020-Aug-06 07:45 344 0 gusting 0 23.6
2020-Aug-06 07:40 23.6
2020-Aug-06 07:35 23.6
2020-Aug-06 07:30 23.7
2020-Aug-06 07:25 357 1 gusting 1 23.7
2020-Aug-06 07:20 021 1 gusting 1 23.6
2020-Aug-06 07:15 028 0 gusting 1 23.7
2020-Aug-06 07:10 23.6
2020-Aug-06 07:05 293 0 gusting 0 23.6
2020-Aug-06 07:00 355 0 gusting 1 23.7
2020-Aug-06 06:55 088 0 gusting 0 23.8
2020-Aug-06 06:50 23.7
2020-Aug-06 06:45 23.6
2020-Aug-06 06:40 23.6
2020-Aug-06 06:35 092 0 gusting 1 23.6
2020-Aug-06 06:30 133 0 gusting 0 23.5
2020-Aug-06 06:25 127 0 gusting 1 23.4
2020-Aug-06 06:20 133 1 gusting 3 23.4
2020-Aug-06 06:15 142 2 gusting 3 23.4
2020-Aug-06 06:10 132 2 gusting 3 23.3
2020-Aug-06 06:05 131 2 gusting 3 23.2
2020-Aug-06 06:00 102 0 gusting 1 23.1
2020-Aug-06 05:55 094 0 gusting 0 23.0
2020-Aug-06 05:50 111 0 gusting 1 23.0
2020-Aug-06 05:45 023 0 gusting 1 23.0
2020-Aug-06 05:40 020 1 gusting 1 23.0
2020-Aug-06 05:35 22.8
2020-Aug-06 05:30 22.7
2020-Aug-06 05:25 22.6
2020-Aug-06 05:20 011 0 gusting 0 22.6
2020-Aug-06 05:15 011 0 gusting 0 22.6
2020-Aug-06 05:10 085 0 gusting 1 22.6
2020-Aug-06 05:05 101 0 gusting 1 22.7
2020-Aug-06 05:00 22.7
2020-Aug-06 04:55 22.6
2020-Aug-06 04:50 012 0 gusting 0 22.8
2020-Aug-06 04:45 012 0 gusting 1 22.9
2020-Aug-06 04:40 22.9
2020-Aug-06 04:35 012 0 gusting 0 23.2
2020-Aug-06 04:30 012 0 gusting 0 23.2
2020-Aug-06 04:25 012 0 gusting 0 23.1
2020-Aug-06 04:20 015 1 gusting 1 23.0
2020-Aug-06 04:15 360 1 gusting 1 23.1
2020-Aug-06 04:10 354 0 gusting 1 23.2
2020-Aug-06 04:05 006 1 gusting 1 23.3
2020-Aug-06 04:00 005 1 gusting 1 23.3
2020-Aug-06 03:55 137 1 gusting 1 23.3
2020-Aug-06 03:50 179 0 gusting 0 23.2
2020-Aug-06 03:45 23.3
2020-Aug-06 03:40 23.4
2020-Aug-06 03:35 23.6
2020-Aug-06 03:30 23.5
2020-Aug-06 03:25 23.5
2020-Aug-06 03:20 23.6
2020-Aug-06 03:15 23.8
2020-Aug-06 03:10 23.9
2020-Aug-06 03:05 23.9
2020-Aug-06 03:00 23.7
2020-Aug-06 02:55 179 0 gusting 0 23.7
2020-Aug-06 02:50 179 0 gusting 0 23.7
2020-Aug-06 02:45 23.9
2020-Aug-06 02:40 23.9
2020-Aug-06 02:35 24.0
2020-Aug-06 02:30 165 0 gusting 0 24.0
2020-Aug-06 02:25 24.0
2020-Aug-06 02:20 123 0 gusting 1 24.0
2020-Aug-06 02:15 132 1 gusting 1 24.0
2020-Aug-06 02:10 161 1 gusting 1 24.1
2020-Aug-06 02:05 159 1 gusting 2 24.2
2020-Aug-06 02:00 146 1 gusting 1 24.1
2020-Aug-06 01:55 141 0 gusting 0 24.2
2020-Aug-06 01:50 138 1 gusting 2 24.4
2020-Aug-06 01:45 140 2 gusting 2 24.5
2020-Aug-06 01:40 124 1 gusting 1 24.5
2020-Aug-06 01:35 152 0 gusting 1 24.5
2020-Aug-06 01:30 139 0 gusting 1 24.6
2020-Aug-06 01:25 131 1 gusting 1 24.6
2020-Aug-06 01:20 127 0 gusting 1 24.7
2020-Aug-06 01:15 24.8
2020-Aug-06 01:10 24.9
2020-Aug-06 01:05 25.0
2020-Aug-06 01:00 25.1
2020-Aug-06 00:55 127 0 gusting 0 25.4
2020-Aug-06 00:50 127 0 gusting 0 25.7
2020-Aug-06 00:45 140 0 gusting 0 25.7
2020-Aug-06 00:40 146 0 gusting 0 25.7
2020-Aug-06 00:35 147 0 gusting 1 25.8
2020-Aug-06 00:30 147 0 gusting 1 26.0
2020-Aug-06 00:25 144 1 gusting 2 26.2
2020-Aug-06 00:20 151 0 gusting 1 26.3
2020-Aug-06 00:15 168 1 gusting 1 26.4
2020-Aug-06 00:10 165 1 gusting 2 26.5
2020-Aug-06 00:05 135 2 gusting 3 26.6
2020-Aug-06 00:00 114 2 gusting 4 26.7
2020-Aug-05 23:55 128 2 gusting 3 27.0
2020-Aug-05 23:50 126 2 gusting 3 27.3
2020-Aug-05 23:45 132 2 gusting 2 27.7
2020-Aug-05 23:40 151 0 gusting 2 27.8
2020-Aug-05 23:35 130 0 gusting 1 27.8
2020-Aug-05 23:30 113 2 gusting 3 28.0
2020-Aug-05 23:25 124 2 gusting 3 28.4
2020-Aug-05 23:20 130 2 gusting 3 28.8
2020-Aug-05 23:15 183 2 gusting 3 29.1
2020-Aug-05 23:10 211 1 gusting 2 29.3
2020-Aug-05 23:05 218 1 gusting 3 29.4
2020-Aug-05 23:00 248 1 gusting 2 29.4
2020-Aug-05 22:55 264 1 gusting 2 29.4
2020-Aug-05 22:50 280 0 gusting 2 29.4
2020-Aug-05 22:45 291 1 gusting 2 29.0
2020-Aug-05 22:40 318 2 gusting 4 29.1
2020-Aug-05 22:35 307 2 gusting 3 29.4
2020-Aug-05 22:30 305 1 gusting 3 29.6
2020-Aug-05 22:25 300 1 gusting 4 29.7
2020-Aug-05 22:20 296 1 gusting 2 29.6
2020-Aug-05 22:15 321 2 gusting 4 29.6
2020-Aug-05 22:10 311 2 gusting 5 30.1
2020-Aug-05 22:05 230 1 gusting 3 30.0
2020-Aug-05 22:00 249 3 gusting 5 30.0
2020-Aug-05 21:55 247 2 gusting 5 30.0
2020-Aug-05 21:50 269 1 gusting 3 29.9
2020-Aug-05 21:45 285 2 gusting 4 29.9
2020-Aug-05 21:40 320 2 gusting 4 29.7
2020-Aug-05 21:35 332 4 gusting 7 29.8
2020-Aug-05 21:30 330 2 gusting 5 29.9
2020-Aug-05 21:25 304 3 gusting 6 30.1
2020-Aug-05 21:20 275 3 gusting 5 30.0
2020-Aug-05 21:15 313 3 gusting 6 30.0
2020-Aug-05 21:10 270 3 gusting 5 30.2
2020-Aug-05 21:05 341 2 gusting 4 30.3
2020-Aug-05 21:00 294 1 gusting 4 30.3
2020-Aug-05 20:55 223 2 gusting 5 30.4
2020-Aug-05 20:50 223 3 gusting 6 30.5
2020-Aug-05 20:45 263 1 gusting 3 30.4
2020-Aug-05 20:40 243 2 gusting 4 30.3
2020-Aug-05 20:35 216 2 gusting 4 30.3
2020-Aug-05 20:30 273 2 gusting 4 30.4
2020-Aug-05 20:25 261 2 gusting 5 30.2
2020-Aug-05 20:20 298 1 gusting 4 30.0
2020-Aug-05 20:15 323 1 gusting 3 29.9
2020-Aug-05 20:10 327 2 gusting 6 30.1
2020-Aug-05 20:05 316 2 gusting 3 30.3
2020-Aug-05 20:00 241 2 gusting 4 30.3
2020-Aug-05 19:55 293 1 gusting 5 30.3
2020-Aug-05 19:50 270 2 gusting 6 30.1
2020-Aug-05 19:45 250 3 gusting 5 30.2
2020-Aug-05 19:40 317 2 gusting 5 30.5
2020-Aug-05 19:35 256 3 gusting 6 30.3
2020-Aug-05 19:30 358 2 gusting 6 30.2
2020-Aug-05 19:25 335 0 gusting 2 30.0
2020-Aug-05 19:20 329 2 gusting 3 30.0
2020-Aug-05 19:15 286 2 gusting 6 30.2
2020-Aug-05 19:10 202 2 gusting 4 30.3
2020-Aug-05 19:05 267 2 gusting 4 30.2
2020-Aug-05 19:00 282 2 gusting 5 30.2
2020-Aug-05 18:55 283 2 gusting 3 29.9
2020-Aug-05 18:50 277 2 gusting 5 29.8
2020-Aug-05 18:45 286 3 gusting 6 29.9
2020-Aug-05 18:40 305 2 gusting 6 29.7
2020-Aug-05 18:35 299 2 gusting 5 29.7
2020-Aug-05 18:30 291 3 gusting 6 29.8
2020-Aug-05 18:25 324 3 gusting 6 29.6
2020-Aug-05 18:20 320 2 gusting 5 29.7
2020-Aug-05 18:15 312 1 gusting 4 29.7
2020-Aug-05 18:10 307 4 gusting 7 29.7
2020-Aug-05 18:05 225 2 gusting 5 29.5
2020-Aug-05 18:00 275 4 gusting 7 29.5
2020-Aug-05 17:55 326 3 gusting 5 29.3
2020-Aug-05 17:50 308 2 gusting 7 29.0
2020-Aug-05 17:45 279 2 gusting 5 29.1
2020-Aug-05 17:40 280 4 gusting 6 29.4
2020-Aug-05 17:35 307 2 gusting 6 29.3
2020-Aug-05 17:30 269 3 gusting 6 29.2
2020-Aug-05 17:25 278 5 gusting 12 29.3
2020-Aug-05 17:20 287 2 gusting 7 29.2
2020-Aug-05 17:15 331 3 gusting 5 29.2
2020-Aug-05 17:10 320 3 gusting 7 29.1
2020-Aug-05 17:05 316 4 gusting 6 29.0
2020-Aug-05 17:00 305 3 gusting 5 28.8
2020-Aug-05 16:55 336 2 gusting 6 28.8
2020-Aug-05 16:50 300 2 gusting 8 28.7
2020-Aug-05 16:45 293 3 gusting 6 28.7
2020-Aug-05 16:40 325 2 gusting 6 28.5
2020-Aug-05 16:35 323 4 gusting 6 28.6
2020-Aug-05 16:30 311 2 gusting 4 28.4
2020-Aug-05 16:25 342 3 gusting 6 28.3
2020-Aug-05 16:20 342 2 gusting 5 28.2
2020-Aug-05 16:15 347 2 gusting 4 27.9
2020-Aug-05 16:10 319 4 gusting 7 28.2
2020-Aug-05 16:05 299 1 gusting 3 28.1
2020-Aug-05 16:00 310 3 gusting 10 28.0
2020-Aug-05 15:55 335 3 gusting 9 27.8
2020-Aug-05 15:50 340 2 gusting 5 27.8
2020-Aug-05 15:45 336 3 gusting 6 27.6
2020-Aug-05 15:40 346 3 gusting 6 27.8
2020-Aug-05 15:35 331 3 gusting 5 27.8
2020-Aug-05 15:30 008 3 gusting 6 27.8
2020-Aug-05 15:25 009 2 gusting 6 27.8
2020-Aug-05 15:20 357 2 gusting 4 27.6
2020-Aug-05 15:15 337 3 gusting 6 27.6
2020-Aug-05 15:10 092 1 gusting 3 27.1
2020-Aug-05 15:05 320 2 gusting 5 27.0
2020-Aug-05 15:00 345 3 gusting 7 26.8
2020-Aug-05 14:55 331 4 gusting 7 26.8
2020-Aug-05 14:50 330 2 gusting 5 26.9
2020-Aug-05 14:45 332 2 gusting 5 26.9
2020-Aug-05 14:40 356 3 gusting 5 26.9
2020-Aug-05 14:35 342 2 gusting 3 26.8
2020-Aug-05 14:30 313 2 gusting 4 26.7
2020-Aug-05 14:25 022 3 gusting 5 26.5
2020-Aug-05 14:20 345 2 gusting 4 26.4
2020-Aug-05 14:15 345 2 gusting 5 26.2
2020-Aug-05 14:10 324 3 gusting 5 26.0
2020-Aug-05 14:05 326 3 gusting 7 26.0
2020-Aug-05 14:00 014 3 gusting 5 26.0
2020-Aug-05 13:55 011 3 gusting 7 25.7
2020-Aug-05 13:50 356 2 gusting 5 25.6
2020-Aug-05 13:45 324 3 gusting 5 25.5
2020-Aug-05 13:40 328 3 gusting 6 25.3
2020-Aug-05 13:35 335 3 gusting 6 25.4
2020-Aug-05 13:30 337 3 gusting 5 25.5
2020-Aug-05 13:25 340 2 gusting 4 25.4
2020-Aug-05 13:20 332 4 gusting 7 25.0
2020-Aug-05 13:15 351 3 gusting 7 24.8
2020-Aug-05 13:10 342 4 gusting 7 24.7
2020-Aug-05 13:05 330 4 gusting 8 24.6
2020-Aug-05 13:00 332 4 gusting 6 24.5
2020-Aug-05 12:55 336 4 gusting 7 24.5
2020-Aug-05 12:50 332 4 gusting 6 24.3
2020-Aug-05 12:45 339 3 gusting 5 24.1
2020-Aug-05 12:40 326 4 gusting 6 23.9
2020-Aug-05 12:35 330 4 gusting 6 23.8
2020-Aug-05 12:30 324 4 gusting 6 23.8
2020-Aug-05 12:25 335 2 gusting 6 23.6
2020-Aug-05 12:20 329 2 gusting 4 23.7
2020-Aug-05 12:15 329 4 gusting 6 23.7
2020-Aug-05 12:10 332 2 gusting 5 23.7
2020-Aug-05 12:05 326 2 gusting 4 23.5
2020-Aug-05 12:00 333 3 gusting 6 23.3
2020-Aug-05 11:55 328 3 gusting 6 23.3
2020-Aug-05 11:50 324 3 gusting 4 23.2
2020-Aug-05 11:45 310 2 gusting 3 23.2
2020-Aug-05 11:40 325 1 gusting 3 23.5
2020-Aug-05 11:35 290 0 gusting 1 23.4
2020-Aug-05 11:30 282 0 gusting 1 23.3
2020-Aug-05 11:25 287 0 gusting 1 23.0
2020-Aug-05 11:20 293 0 gusting 2 22.7
2020-Aug-05 11:15 295 0 gusting 1 22.6
2020-Aug-05 11:10 280 0 gusting 2 22.4
2020-Aug-05 11:05 277 0 gusting 2 22.2
2020-Aug-05 11:00 251 0 gusting 1 22.1
2020-Aug-05 10:55 278 1 gusting 3 22.0
2020-Aug-05 10:50 247 1 gusting 3 21.9
2020-Aug-05 10:45 256 1 gusting 3 21.8
2020-Aug-05 10:40 282 0 gusting 2 21.8
2020-Aug-05 10:35 306 0 gusting 1 21.7
2020-Aug-05 10:30 290 0 gusting 1 21.6
2020-Aug-05 10:25 313 1 gusting 2 21.5
2020-Aug-05 10:20 315 1 gusting 3 21.4
2020-Aug-05 10:15 334 1 gusting 1 21.4
2020-Aug-05 10:10 331 0 gusting 1 21.5
2020-Aug-05 10:05 297 0 gusting 0 21.5
2020-Aug-05 10:00 297 0 gusting 0 21.6
2020-Aug-05 09:55 347 0 gusting 1 21.6
2020-Aug-05 09:50 354 0 gusting 1 21.6
2020-Aug-05 09:45 351 0 gusting 1 21.7
2020-Aug-05 09:40 318 0 gusting 1 21.7
2020-Aug-05 09:35 316 0 gusting 1 21.7
2020-Aug-05 09:30 325 1 gusting 1 21.7
2020-Aug-05 09:25 312 0 gusting 1 21.7
2020-Aug-05 09:20 308 0 gusting 1 21.8
2020-Aug-05 09:15 314 0 gusting 1 21.8
2020-Aug-05 09:10 21.9
2020-Aug-05 09:05 21.9
2020-Aug-05 09:00 22.0
2020-Aug-05 08:55 22.0
2020-Aug-05 08:50 22.0
2020-Aug-05 08:45 21.9
2020-Aug-05 08:40 240 0 gusting 0 21.9
2020-Aug-05 08:35 21.9
2020-Aug-05 08:30 21.9
2020-Aug-05 08:25 22.0
2020-Aug-05 08:20 203 0 gusting 1 22.0
2020-Aug-05 08:15 260 0 gusting 1 22.1
2020-Aug-05 08:10 316 1 gusting 1 22.1
2020-Aug-05 08:05 316 0 gusting 1 22.2
2020-Aug-05 08:00 280 0 gusting 1 22.2
2020-Aug-05 07:55 235 0 gusting 1 22.3
2020-Aug-05 07:50 206 1 gusting 1 22.3
2020-Aug-05 07:45 201 0 gusting 1 22.4
2020-Aug-05 07:40 22.4
2020-Aug-05 07:35 232 0 gusting 0 22.3
2020-Aug-05 07:30 225 0 gusting 1 22.4
2020-Aug-05 07:25 22.4
2020-Aug-05 07:20 273 0 gusting 1 22.5
2020-Aug-05 07:15 247 0 gusting 0 22.5
2020-Aug-05 07:10 238 0 gusting 0 22.6
2020-Aug-05 07:05 197 0 gusting 2 22.6
2020-Aug-05 07:00 163 1 gusting 1 22.7
2020-Aug-05 06:55 162 0 gusting 2 22.8
2020-Aug-05 06:50 179 1 gusting 2 22.9
2020-Aug-05 06:45 219 0 gusting 1 23.0
2020-Aug-05 06:40 233 0 gusting 1 23.0
2020-Aug-05 06:35 219 0 gusting 1 23.1
2020-Aug-05 06:30 224 0 gusting 1 23.2
2020-Aug-05 06:25 207 0 gusting 1 23.2
2020-Aug-05 06:20 158 1 gusting 1 23.2
2020-Aug-05 06:15 194 1 gusting 1 23.2
2020-Aug-05 06:10 150 1 gusting 1 23.2
2020-Aug-05 06:05 152 0 gusting 1 23.2
2020-Aug-05 06:00 167 0 gusting 1 23.2
2020-Aug-05 05:55 217 1 gusting 2 23.3
2020-Aug-05 05:50 224 1 gusting 2 23.5
2020-Aug-05 05:45 256 0 gusting 2 23.6
2020-Aug-05 05:40 302 1 gusting 2 23.7
2020-Aug-05 05:35 319 0 gusting 1 23.8
2020-Aug-05 05:30 304 1 gusting 3 23.9
2020-Aug-05 05:25 308 1 gusting 1 24.0
2020-Aug-05 05:20 309 1 gusting 2 24.2
2020-Aug-05 05:15 289 2 gusting 3 24.2
2020-Aug-05 05:10 275 0 gusting 3 24.2
2020-Aug-05 05:05 274 2 gusting 4 24.3
2020-Aug-05 05:00 301 2 gusting 6 24.4
2020-Aug-05 04:55 299 7 gusting 15 24.4
2020-Aug-05 04:50 283 2 gusting 9 24.4
2020-Aug-05 04:45 269 2 gusting 6 24.4
2020-Aug-05 04:40 291 2 gusting 4 24.4
2020-Aug-05 04:35 265 2 gusting 5 24.4
2020-Aug-05 04:30 266 3 gusting 6 24.5
2020-Aug-05 04:25 251 4 gusting 8 24.3
2020-Aug-05 04:20 273 3 gusting 6 24.0
2020-Aug-05 04:15 284 2 gusting 4 23.9
2020-Aug-05 04:10 311 1 gusting 4 23.8
2020-Aug-05 04:05 320 4 gusting 6 23.8
2020-Aug-05 04:00 231 3 gusting 7 23.8
2020-Aug-05 03:55 192 4 gusting 6 23.7
2020-Aug-05 03:50 188 4 gusting 5 23.7
2020-Aug-05 03:45 192 5 gusting 7 23.7
2020-Aug-05 03:40 194 4 gusting 6 23.7
2020-Aug-05 03:35 196 4 gusting 6 23.7
2020-Aug-05 03:30 195 5 gusting 8 23.6
2020-Aug-05 03:25 190 7 gusting 10 23.5
2020-Aug-05 03:20 183 6 gusting 8 23.4
2020-Aug-05 03:15 203 4 gusting 6 23.4
2020-Aug-05 03:10 190 4 gusting 7 23.3
2020-Aug-05 03:05 190 4 gusting 6 23.2
2020-Aug-05 03:00 190 4 gusting 7 23.1
2020-Aug-05 02:55 185 5 gusting 8 23.1
2020-Aug-05 02:50 181 6 gusting 9 23.0
2020-Aug-05 02:45 183 3 gusting 7 22.8
2020-Aug-05 02:40 193 3 gusting 6 22.8
2020-Aug-05 02:35 208 2 gusting 3 22.8
2020-Aug-05 02:30 202 2 gusting 3 22.9
2020-Aug-05 02:25 209 1 gusting 2 22.9
2020-Aug-05 02:20 208 2 gusting 2 23.0
2020-Aug-05 02:15 215 2 gusting 3 23.0
2020-Aug-05 02:10 216 2 gusting 4 23.1
2020-Aug-05 02:05 205 2 gusting 4 23.2
2020-Aug-05 02:00 203 4 gusting 7 23.2
2020-Aug-05 01:55 205 5 gusting 6 23.3
2020-Aug-05 01:50 199 6 gusting 10 23.4
2020-Aug-05 01:45 195 7 gusting 11 23.6
2020-Aug-05 01:40 196 7 gusting 10 24.0
2020-Aug-05 01:35 202 8 gusting 12 24.7
2020-Aug-05 01:30 209 9 gusting 12 25.5
2020-Aug-05 01:25 203 9 gusting 18 25.8
2020-Aug-05 01:20 181 8 gusting 16 25.6
2020-Aug-05 01:15 175 6 gusting 9 25.5
2020-Aug-05 01:10 169 4 gusting 6 25.5
2020-Aug-05 01:05 172 4 gusting 6 25.5
2020-Aug-05 01:00 177 4 gusting 5 25.5
2020-Aug-05 00:55 180 5 gusting 6 25.5
2020-Aug-05 00:50 181 4 gusting 7 25.4
2020-Aug-05 00:45 190 4 gusting 5 25.4
2020-Aug-05 00:40 192 3 gusting 4 25.5
2020-Aug-05 00:35 189 3 gusting 4 25.6
2020-Aug-05 00:30 190 3 gusting 4 25.7
2020-Aug-05 00:25 187 3 gusting 5 25.8
2020-Aug-05 00:20 187 3 gusting 5 25.9
2020-Aug-05 00:15 184 4 gusting 5 26.0
2020-Aug-05 00:10 186 3 gusting 4 26.1
2020-Aug-05 00:05 190 3 gusting 5 26.2
2020-Aug-05 00:00 189 3 gusting 4 26.3
2020-Aug-04 23:55 192 3 gusting 5 26.4
2020-Aug-04 23:50 192 3 gusting 5 26.6
2020-Aug-04 23:45 195 4 gusting 6 26.7
2020-Aug-04 23:40 192 4 gusting 6 26.9
2020-Aug-04 23:35 195 4 gusting 7 27.0
2020-Aug-04 23:30 199 4 gusting 6 27.2
2020-Aug-04 23:25 193 4 gusting 6 27.5
2020-Aug-04 23:20 194 5 gusting 6 27.7
2020-Aug-04 23:15 185 5 gusting 9 27.8
2020-Aug-04 23:10 191 5 gusting 8 27.9
2020-Aug-04 23:05 195 6 gusting 9 28.0
2020-Aug-04 23:00 201 5 gusting 9 28.1
2020-Aug-04 22:55 197 6 gusting 9 28.2
2020-Aug-04 22:50 201 5 gusting 8 28.3
2020-Aug-04 22:45 200 5 gusting 8 28.4
2020-Aug-04 22:40 204 5 gusting 7 28.4
2020-Aug-04 22:35 206 4 gusting 6 28.4
2020-Aug-04 22:30 208 5 gusting 7 28.4
2020-Aug-04 22:25 211 6 gusting 9 28.4
2020-Aug-04 22:20 207 5 gusting 8 28.5
2020-Aug-04 22:15 221 7 gusting 11 28.4
2020-Aug-04 22:10 210 6 gusting 11 28.4
2020-Aug-04 22:05 218 7 gusting 11 28.4
2020-Aug-04 22:00 217 7 gusting 12 28.3
2020-Aug-04 21:55 224 8 gusting 12 28.2
2020-Aug-04 21:50 217 8 gusting 14 28.3
2020-Aug-04 21:45 218 7 gusting 12 28.4
2020-Aug-04 21:40 218 8 gusting 12 28.4
2020-Aug-04 21:35 215 7 gusting 12 28.4
2020-Aug-04 21:30 214 8 gusting 13 28.3
2020-Aug-04 21:25 213 7 gusting 13 28.2
2020-Aug-04 21:20 212 8 gusting 13 28.3
2020-Aug-04 21:15 224 6 gusting 10 28.3
2020-Aug-04 21:10 223 7 gusting 10 28.4
2020-Aug-04 21:05 220 7 gusting 11 28.3
2020-Aug-04 21:00 215 7 gusting 14 28.1
2020-Aug-04 20:55 218 8 gusting 16 28.0
2020-Aug-04 20:50 216 8 gusting 12 28.2
2020-Aug-04 20:45 221 7 gusting 11 28.1
2020-Aug-04 20:40 226 10 gusting 14 27.9
2020-Aug-04 20:35 230 6 gusting 12 27.9
2020-Aug-04 20:30 225 10 gusting 20 27.5
2020-Aug-04 20:25 219 9 gusting 15 27.5
2020-Aug-04 20:20 232 6 gusting 11 27.5
2020-Aug-04 20:15 231 6 gusting 14 27.6
2020-Aug-04 20:10 223 10 gusting 18 27.3
2020-Aug-04 20:05 223 12 gusting 18 27.4
2020-Aug-04 20:00 226 8 gusting 15 27.5
2020-Aug-04 19:55 223 11 gusting 17 27.4
2020-Aug-04 19:50 225 9 gusting 17 27.3
2020-Aug-04 19:45 221 8 gusting 14 27.3
2020-Aug-04 19:40 238 6 gusting 13 27.1
2020-Aug-04 19:35 221 8 gusting 16 27.0
2020-Aug-04 19:30 229 8 gusting 14 26.8
2020-Aug-04 19:25 240 6 gusting 13 26.9
2020-Aug-04 19:20 240 7 gusting 15 26.7
2020-Aug-04 19:15 228 10 gusting 17 26.6
2020-Aug-04 19:10 228 7 gusting 12 26.4
2020-Aug-04 19:05 229 7 gusting 12 26.0
2020-Aug-04 19:00 229 5 gusting 12 25.5
2020-Aug-04 18:55 236 6 gusting 13 25.2
2020-Aug-04 18:50 228 6 gusting 15 25.3
2020-Aug-04 18:45 235 8 gusting 14 25.6
2020-Aug-04 18:40 248 5 gusting 11 25.7
2020-Aug-04 18:35 249 5 gusting 12 25.7
2020-Aug-04 18:30 247 4 gusting 11 25.5
2020-Aug-04 18:25 236 6 gusting 13 25.2
2020-Aug-04 18:20 245 8 gusting 17 25.2
2020-Aug-04 18:15 246 6 gusting 12 24.9
2020-Aug-04 18:10 244 7 gusting 18 24.9
2020-Aug-04 18:05 231 7 gusting 15 24.9
2020-Aug-04 18:00 228 7 gusting 17 24.6
2020-Aug-04 17:55 237 8 gusting 17 24.3
2020-Aug-04 17:50 240 7 gusting 17 24.2
2020-Aug-04 17:45 231 10 gusting 19 23.8
2020-Aug-04 17:40 226 11 gusting 19 23.7
2020-Aug-04 17:35 226 9 gusting 18 23.3
2020-Aug-04 17:30 233 11 gusting 20 23.2
2020-Aug-04 17:25 240 7 gusting 15 22.9
2020-Aug-04 17:20 236 7 gusting 14 22.7
2020-Aug-04 17:15 238 8 gusting 16 22.4
2020-Aug-04 17:10 232 9 gusting 20 22.0
2020-Aug-04 17:05 234 9 gusting 19 21.8
2020-Aug-04 17:00 244 6 gusting 15 21.9
2020-Aug-04 16:55 262 7 gusting 15 21.5
2020-Aug-04 16:50 294 8 gusting 16 21.4
2020-Aug-04 16:45 291 7 gusting 14 21.2
2020-Aug-04 16:40 269 7 gusting 17 21.0
2020-Aug-04 16:35 275 8 gusting 15 21.0
2020-Aug-04 16:30 260 8 gusting 14 20.9
2020-Aug-04 16:25 257 9 gusting 19 21.0
2020-Aug-04 16:20 275 9 gusting 21 21.0
2020-Aug-04 16:15 280 12 gusting 25 21.0
2020-Aug-04 16:10 291 10 gusting 22 21.0
2020-Aug-04 16:05 287 14 gusting 31 21.1
2020-Aug-04 16:00 292 13 gusting 30 21.0
2020-Aug-04 15:55 279 11 gusting 26 21.2
2020-Aug-04 15:50 280 11 gusting 28 21.8
2020-Aug-04 15:45 250 8 gusting 16 23.1
2020-Aug-04 15:40 188 9 gusting 14 23.2
2020-Aug-04 15:35 193 9 gusting 14 22.9
2020-Aug-04 15:30 185 11 gusting 16 22.6
2020-Aug-04 15:25 184 10 gusting 15 22.5
2020-Aug-04 15:20 179 10 gusting 13 22.4
2020-Aug-04 15:15 174 10 gusting 18 22.4
2020-Aug-04 15:10 168 9 gusting 11 22.3
2020-Aug-04 15:05 175 9 gusting 14 22.2
2020-Aug-04 15:00 161 11 gusting 15 22.2
2020-Aug-04 14:55 156 11 gusting 15 22.2
2020-Aug-04 14:50 157 11 gusting 16 22.2
2020-Aug-04 14:45 153 14 gusting 20 22.2
2020-Aug-04 14:40 158 13 gusting 20 22.3
2020-Aug-04 14:35 151 16 gusting 27 22.3
2020-Aug-04 14:30 150 14 gusting 23 22.4
2020-Aug-04 14:25 150 17 gusting 27 22.6
2020-Aug-04 14:20 150 17 gusting 25 22.8
2020-Aug-04 14:15 143 15 gusting 22 23.0
2020-Aug-04 14:10 147 16 gusting 23 23.1
2020-Aug-04 14:05 150 18 gusting 25 23.3
2020-Aug-04 14:00 149 19 gusting 28 23.6
2020-Aug-04 13:55 152 21 gusting 34 24.0
2020-Aug-04 13:50 132 18 gusting 28 24.3
2020-Aug-04 13:45 126 20 gusting 31 24.4
2020-Aug-04 13:40 116 18 gusting 32 24.4
2020-Aug-04 13:35 116 14 gusting 26 24.4
2020-Aug-04 13:30 114 14 gusting 24 24.4
2020-Aug-04 13:25 130 11 gusting 19 24.1
2020-Aug-04 13:20 133 12 gusting 20 24.0
2020-Aug-04 13:15 126 12 gusting 20 24.0
2020-Aug-04 13:10 142 15 gusting 23 24.0
2020-Aug-04 13:05 139 23 gusting 38 24.1
2020-Aug-04 13:00 123 25 gusting 38 24.5
2020-Aug-04 12:55 111 24 gusting 42 24.7
2020-Aug-04 12:50 092 6 gusting 28 25.0
2020-Aug-04 12:45 106 5 gusting 14 25.1
2020-Aug-04 12:40 106 8 gusting 17 25.1
2020-Aug-04 12:35 096 6 gusting 14 25.1
2020-Aug-04 12:30 096 5 gusting 16 25.1
2020-Aug-04 12:25 111 7 gusting 15 25.1
2020-Aug-04 12:20 110 7 gusting 21 25.1
2020-Aug-04 12:15 111 8 gusting 18 25.2
2020-Aug-04 12:10 107 8 gusting 19 25.2
2020-Aug-04 12:05 114 6 gusting 13 25.2
2020-Aug-04 12:00 118 6 gusting 12 25.2